Terminal Aerodrome Forecast
Issued by NWS Melbourne, FL

Home | Current Version | Previous Version | Text Only | Print | Product List | Glossary On
Versions: 1 2 3 4 5 6 7 8 9 10 11 12 13 14 15 16 17 18 19 20 21 22 23 24
000
FTUS42 KMLB 042326
TAFDAB
TAF
KDAB 042326Z 0500/0524 22008KT P6SM VCSH SCT025 BKN100
      TEMPO 0500/0501 5SM RA SCT015 BKN025
     FM050300 23010KT P6SM SCT025 BKN060
     FM050600 27010KT P6SM SCT060
     FM051500 29017G23KT P6SM FEW035=

USA.gov is the U.S. government's official web portal to all federal, state and local government web resources and services.